Time;durP1;ratioP1;P1;durP2;ratioP2;P2;SDS_P1;SDS_P2;PMS_P1;PMS_P2;Temp;Humidity;BMP_temperature;BMP_pressure;BME280_temperature;BME280_humidity;BME280_pressure;Samples;Min_cycle;Max_cycle;Signal;HPM_P1;HPM_P2
2023/06/26 00:00:26;;;;;;;90.22;56.50;;;23.40;71.80;;;;;;4960064;28;90094;-75
2023/06/26 00:02:52;;;;;;;89.53;56.10;;;23.30;72.10;;;;;;4952171;28;89333;-74
2023/06/26 00:05:18;;;;;;;89.45;56.47;;;23.20;72.00;;;;;;4980692;28;90263;-74
2023/06/26 00:07:43;;;;;;;89.05;56.45;;;23.20;72.10;;;;;;4969452;28;88794;-76
2023/06/26 00:10:09;;;;;;;89.55;56.10;;;23.20;72.10;;;;;;4975294;28;90285;-76
2023/06/26 00:12:35;;;;;;;89.63;55.92;;;23.20;72.10;;;;;;4973015;28;90219;-76
2023/06/26 00:15:00;;;;;;;89.15;56.30;;;23.20;72.30;;;;;;4979944;28;93080;-76
2023/06/26 00:17:26;;;;;;;89.85;56.08;;;23.10;72.40;;;;;;4973699;28;94718;-75
2023/06/26 00:19:51;;;;;;;89.70;55.78;;;23.10;73.30;;;;;;4970753;28;90698;-75
2023/06/26 00:22:18;;;;;;;90.18;56.38;;;23.10;72.50;;;;;;4978147;28;89527;-75
2023/06/26 00:24:44;;;;;;;91.45;56.15;;;23.00;72.60;;;;;;4976443;28;91095;-74
2023/06/26 00:27:10;;;;;;;87.40;55.70;;;23.00;73.30;;;;;;4974575;28;91171;-76
2023/06/26 00:29:36;;;;;;;90.25;56.20;;;23.00;73.10;;;;;;4976836;28;93029;-75
2023/06/26 00:32:01;;;;;;;89.25;56.25;;;23.00;72.70;;;;;;4971122;28;93253;-76
2023/06/26 00:34:27;;;;;;;91.45;56.17;;;23.00;73.70;;;;;;4977524;28;89973;-76
2023/06/26 00:36:52;;;;;;;89.18;56.17;;;23.00;73.90;;;;;;4973999;28;91060;-74
2023/06/26 00:39:18;;;;;;;89.18;56.35;;;22.90;73.20;;;;;;4965680;28;91838;-74
2023/06/26 00:41:43;;;;;;;87.95;55.55;;;22.90;73.50;;;;;;4977870;28;90014;-74
2023/06/26 00:44:09;;;;;;;87.85;55.88;;;22.90;73.50;;;;;;4970931;28;90064;-74
2023/06/26 00:46:35;;;;;;;89.25;55.95;;;22.90;73.90;;;;;;4973238;28;91826;-74
2023/06/26 00:49:05;;;;;;;90.57;55.72;;;22.90;73.60;;;;;;4977313;28;90113;-75
2023/06/26 00:51:31;;;;;;;89.38;55.92;;;22.80;73.80;;;;;;4978577;28;90238;-74
2023/06/26 00:53:57;;;;;;;88.55;55.78;;;22.80;73.90;;;;;;4974669;28;89617;-74
2023/06/26 00:56:23;;;;;;;90.50;55.90;;;22.90;73.80;;;;;;4971985;28;89841;-74
2023/06/26 00:58:49;;;;;;;88.75;55.72;;;22.80;73.60;;;;;;4961940;28;90445;-74
2023/06/26 01:01:21;;;;;;;89.47;55.53;;;22.80;73.90;;;;;;4975218;28;89931;-74
2023/06/26 01:03:52;;;;;;;88.38;55.78;;;22.80;74.00;;;;;;4970854;28;91823;-74
2023/06/26 01:06:21;;;;;;;87.88;55.92;;;22.70;74.10;;;;;;4971941;28;91797;-74
2023/06/26 01:08:47;;;;;;;90.13;56.08;;;22.70;74.60;;;;;;4974395;28;89571;-73
2023/06/26 01:11:13;;;;;;;89.90;56.05;;;22.70;74.40;;;;;;4955559;28;90931;-74
2023/06/26 01:13:40;;;;;;;89.63;55.55;;;22.70;74.40;;;;;;4957409;28;91552;-76
2023/06/26 01:16:06;;;;;;;89.07;55.65;;;22.70;74.80;;;;;;4975226;28;90738;-73
2023/06/26 01:18:34;;;;;;;88.05;55.15;;;22.60;74.50;;;;;;4970587;28;90682;-77
2023/06/26 01:21:01;;;;;;;88.72;55.92;;;22.60;74.80;;;;;;4957245;28;93450;-77
2023/06/26 01:24:09;;;;;;;88.28;55.83;;;22.60;74.90;;;;;;4962394;28;90504;-74
2023/06/26 01:26:35;;;;;;;88.38;55.80;;;22.50;74.90;;;;;;4972270;28;90516;-74
2023/06/26 01:29:04;;;;;;;88.25;55.67;;;22.50;75.40;;;;;;4967270;28;91947;-74
2023/06/26 01:31:30;;;;;;;91.13;55.80;;;22.50;74.70;;;;;;4977642;28;90118;-74
2023/06/26 01:33:58;;;;;;;88.43;55.83;;;22.40;74.90;;;;;;4957841;28;90740;-74
2023/06/26 01:36:25;;;;;;;88.00;55.88;;;22.40;75.90;;;;;;4969898;28;89956;-74
2023/06/26 01:38:50;;;;;;;87.65;55.88;;;22.40;75.30;;;;;;4949737;28;89929;-74
2023/06/26 01:41:17;;;;;;;88.18;56.03;;;22.40;77.20;;;;;;4973371;28;90118;-74
2023/06/26 01:44:01;;;;;;;89.18;55.90;;;22.30;75.70;;;;;;4973467;28;89928;-74
2023/06/26 01:46:52;;;;;;;89.10;56.22;;;22.30;76.00;;;;;;4974133;28;93459;-74
2023/06/26 01:49:35;;;;;;;88.68;55.75;;;22.20;75.90;;;;;;4957917;28;89921;-74
2023/06/26 01:52:08;;;;;;;87.43;55.58;;;22.20;76.50;;;;;;4972985;28;89981;-74
2023/06/26 01:54:42;;;;;;;87.57;55.38;;;22.20;76.60;;;;;;4946562;28;92206;-73
2023/06/26 01:57:09;;;;;;;89.65;55.42;;;22.20;76.70;;;;;;4945329;28;97844;-74
2023/06/26 01:59:36;;;;;;;92.45;56.20;;;22.20;76.50;;;;;;4965556;28;90424;-75
2023/06/26 02:02:03;;;;;;;90.35;55.83;;;22.10;76.60;;;;;;4971158;28;89896;-75
2023/06/26 02:04:28;;;;;;;92.40;56.13;;;22.10;77.60;;;;;;4973262;28;90163;-74
2023/06/26 02:06:54;;;;;;;88.68;56.20;;;22.00;76.40;;;;;;4967486;28;94284;-74
2023/06/26 02:09:20;;;;;;;89.03;55.72;;;22.00;77.40;;;;;;4961299;28;91439;-74
2023/06/26 02:11:46;;;;;;;91.28;55.40;;;22.00;77.00;;;;;;4968801;28;92628;-74
2023/06/26 02:14:12;;;;;;;89.13;55.85;;;22.00;77.50;;;;;;4968643;28;92062;-74
2023/06/26 02:16:37;;;;;;;90.18;55.85;;;22.00;76.90;;;;;;4959575;28;91150;-74
2023/06/26 02:19:03;;;;;;;89.30;56.30;;;21.90;77.30;;;;;;4944201;28;93011;-75
2023/06/26 02:21:29;;;;;;;86.85;55.60;;;21.90;77.80;;;;;;4963816;28;91918;-74
2023/06/26 02:23:54;;;;;;;89.68;55.78;;;21.90;76.70;;;;;;4970755;28;89970;-73
2023/06/26 02:26:20;;;;;;;88.22;56.08;;;21.80;78.00;;;;;;4963438;28;89735;-73
2023/06/26 02:28:46;;;;;;;87.28;55.58;;;21.80;78.80;;;;;;4968755;28;90334;-73
2023/06/26 02:31:11;;;;;;;90.32;55.70;;;21.80;79.20;;;;;;4962748;28;93935;-76
2023/06/26 02:33:37;;;;;;;88.25;55.65;;;21.80;77.80;;;;;;4960127;28;90315;-75
2023/06/26 02:36:03;;;;;;;90.40;55.72;;;21.70;79.00;;;;;;4964410;28;91055;-76
2023/06/26 02:38:28;;;;;;;90.18;55.30;;;21.70;79.00;;;;;;4954288;28;89973;-76
2023/06/26 02:40:54;;;;;;;90.88;56.13;;;21.70;79.00;;;;;;4968357;28;90260;-77
2023/06/26 02:43:19;;;;;;;88.38;55.65;;;21.70;78.20;;;;;;4964045;28;92308;-76
2023/06/26 02:45:45;;;;;;;93.00;56.13;;;21.60;79.20;;;;;;4961168;28;90036;-76
2023/06/26 02:48:10;;;;;;;88.93;55.53;;;21.60;78.50;;;;;;4965880;28;90154;-76
2023/06/26 02:50:36;;;;;;;88.32;55.38;;;21.60;79.20;;;;;;4967789;28;90359;-76
2023/06/26 02:53:02;;;;;;;90.43;55.92;;;21.50;79.80;;;;;;4967915;28;90421;-76
2023/06/26 02:55:27;;;;;;;88.10;54.92;;;21.50;79.80;;;;;;4957406;28;91725;-76
2023/06/26 02:57:53;;;;;;;89.20;55.72;;;21.50;79.00;;;;;;4967795;28;91930;-76
2023/06/26 03:00:18;;;;;;;91.30;56.00;;;21.40;79.80;;;;;;4965826;28;89884;-76
2023/06/26 03:02:44;;;;;;;87.88;55.42;;;21.40;79.10;;;;;;4971984;28;90490;-76
2023/06/26 03:05:09;;;;;;;87.13;55.15;;;21.40;80.20;;;;;;4971729;28;90946;-76
2023/06/26 03:07:35;;;;;;;88.47;55.53;;;21.40;80.20;;;;;;4969599;28;91029;-76
2023/06/26 03:10:00;;;;;;;87.20;55.28;;;21.40;80.60;;;;;;4969667;28;89630;-76
2023/06/26 03:12:26;;;;;;;88.60;55.38;;;21.40;80.60;;;;;;4951979;28;91854;-76
2023/06/26 03:14:52;;;;;;;88.95;55.20;;;21.30;79.80;;;;;;4963738;28;92059;-76
2023/06/26 03:17:17;;;;;;;90.20;55.78;;;21.30;79.80;;;;;;4951888;28;89791;-75
2023/06/26 03:19:43;;;;;;;88.80;55.58;;;21.20;81.10;;;;;;4972863;28;89963;-76
2023/06/26 03:22:08;;;;;;;88.75;55.53;;;21.20;80.50;;;;;;4970051;28;92819;-76
2023/06/26 03:24:34;;;;;;;92.50;55.50;;;21.20;79.90;;;;;;4967743;28;89817;-77
2023/06/26 03:26:59;;;;;;;88.95;55.50;;;21.20;80.90;;;;;;4977530;28;92156;-74
2023/06/26 03:29:25;;;;;;;90.25;55.40;;;21.20;81.40;;;;;;4979399;28;89912;-74
2023/06/26 03:31:51;;;;;;;89.68;55.90;;;21.20;80.60;;;;;;4969985;28;92055;-77
2023/06/26 03:34:16;;;;;;;89.85;55.00;;;21.10;81.00;;;;;;4966765;28;89957;-76
2023/06/26 03:36:42;;;;;;;90.30;55.90;;;21.10;80.80;;;;;;4984523;28;89159;-75
2023/06/26 03:39:08;;;;;;;87.78;55.53;;;21.00;82.20;;;;;;4976119;28;89823;-77
2023/06/26 03:41:34;;;;;;;87.65;55.20;;;21.00;81.10;;;;;;4976357;28;91189;-76
2023/06/26 03:44:00;;;;;;;89.70;55.47;;;21.00;81.10;;;;;;4957051;28;93866;-76
2023/06/26 03:46:26;;;;;;;90.82;55.05;;;21.00;81.30;;;;;;4980632;28;89686;-76
2023/06/26 03:48:51;;;;;;;88.60;55.20;;;21.00;80.30;;;;;;4972259;28;88856;-76
2023/06/26 03:51:17;;;;;;;90.28;55.53;;;21.00;82.10;;;;;;4972091;28;90809;-76
2023/06/26 03:53:43;;;;;;;88.72;55.15;;;20.90;80.80;;;;;;4958206;28;89600;-76
2023/06/26 03:56:08;;;;;;;90.82;55.45;;;21.00;81.10;;;;;;4975225;28;90981;-76
2023/06/26 03:58:34;;;;;;;91.13;55.55;;;20.90;81.20;;;;;;4958869;28;90852;-77
2023/06/26 04:01:00;;;;;;;88.55;55.38;;;20.90;82.20;;;;;;4974245;28;89940;-77
2023/06/26 04:03:26;;;;;;;89.00;54.97;;;20.90;80.60;;;;;;4970005;28;89788;-76
2023/06/26 04:05:51;;;;;;;90.20;55.63;;;20.80;81.40;;;;;;4964134;28;89550;-76
2023/06/26 04:08:17;;;;;;;89.22;55.00;;;20.80;80.10;;;;;;4964714;28;89907;-76
2023/06/26 04:10:45;;;;;;;88.63;54.88;;;20.80;82.20;;;;;;4961421;28;93049;-76
2023/06/26 04:13:10;;;;;;;88.88;55.15;;;20.80;79.10;;;;;;4978820;28;89140;-75
2023/06/26 04:15:36;;;;;;;90.78;55.28;;;20.80;81.80;;;;;;4953994;28;93622;-76
2023/06/26 04:18:02;;;;;;;90.05;55.28;;;20.80;81.20;;;;;;4965418;28;89716;-80
2023/06/26 04:20:28;;;;;;;88.05;55.13;;;20.80;79.20;;;;;;4969036;28;92438;-76
2023/06/26 04:22:54;;;;;;;87.00;54.95;;;20.80;82.10;;;;;;4960711;28;92966;-76
2023/06/26 04:25:19;;;;;;;89.55;54.53;;;20.80;77.80;;;;;;4970213;28;90332;-76
2023/06/26 04:27:45;;;;;;;89.53;54.92;;;20.80;79.80;;;;;;4974569;28;89632;-74
2023/06/26 04:30:12;;;;;;;89.72;55.13;;;20.80;79.10;;;;;;4981696;28;90244;-77
2023/06/26 04:32:38;;;;;;;89.60;55.20;;;20.90;79.70;;;;;;4969999;28;90892;-76
2023/06/26 04:35:03;;;;;;;88.35;55.15;;;20.90;78.70;;;;;;4973454;28;89373;-75
2023/06/26 04:37:29;;;;;;;90.05;55.08;;;21.00;78.00;;;;;;4977025;28;88956;-73
2023/06/26 04:39:54;;;;;;;88.40;55.40;;;21.00;79.10;;;;;;4975686;28;90487;-75
2023/06/26 04:42:21;;;;;;;89.45;55.60;;;21.00;82.00;;;;;;4962577;28;91380;-76
2023/06/26 04:44:47;;;;;;;88.15;54.53;;;21.00;81.20;;;;;;4975186;28;90784;-74
2023/06/26 04:47:14;;;;;;;88.47;55.03;;;21.10;78.20;;;;;;4978720;28;91451;-75
2023/06/26 04:49:45;;;;;;;88.88;54.92;;;21.10;77.70;;;;;;4972145;28;92087;-75
2023/06/26 04:52:13;;;;;;;88.45;54.97;;;21.10;79.70;;;;;;4973904;28;90109;-75
2023/06/26 04:54:38;;;;;;;88.32;54.67;;;21.20;78.20;;;;;;4954069;28;90067;-75
2023/06/26 04:57:05;;;;;;;89.65;54.67;;;21.10;75.50;;;;;;4956612;28;89584;-74
2023/06/26 04:59:31;;;;;;;87.38;54.42;;;21.10;77.70;;;;;;4974953;28;90963;-75
2023/06/26 05:01:56;;;;;;;90.00;54.75;;;21.20;76.70;;;;;;4968398;28;90285;-75
2023/06/26 05:04:22;;;;;;;87.50;54.88;;;21.10;77.30;;;;;;4977918;28;89702;-76
2023/06/26 05:06:48;;;;;;;89.22;54.50;;;21.20;76.70;;;;;;4971870;28;90988;-76
2023/06/26 05:09:14;;;;;;;87.55;54.28;;;20.80;64.00;;;;;;4975308;28;92700;-77
2023/06/26 05:11:39;;;;;;;89.30;53.97;;;20.80;65.00;;;;;;4964262;28;92032;-79
2023/06/26 05:14:09;;;;;;;88.82;55.28;;;20.50;63.60;;;;;;4974920;28;89493;-74
2023/06/26 05:16:35;;;;;;;87.03;54.00;;;20.40;65.70;;;;;;4972071;28;90779;-78
2023/06/26 05:19:01;;;;;;;89.07;54.30;;;20.30;64.30;;;;;;4970489;28;94835;-78
2023/06/26 05:21:28;;;;;;;88.57;54.42;;;20.30;64.50;;;;;;4980497;28;89931;-75
2023/06/26 05:23:56;;;;;;;88.75;54.15;;;20.30;63.00;;;;;;4983126;28;89565;-74
2023/06/26 05:26:22;;;;;;;90.68;54.03;;;20.10;64.40;;;;;;4971714;28;89956;-74
2023/06/26 05:28:48;;;;;;;86.65;54.13;;;19.90;65.10;;;;;;4975220;28;92081;-76
2023/06/26 05:31:15;;;;;;;91.05;54.25;;;20.20;64.00;;;;;;4962201;28;89941;-76
2023/06/26 05:33:43;;;;;;;86.93;53.85;;;20.20;63.00;;;;;;4956293;28;90865;-76
2023/06/26 05:36:10;;;;;;;84.82;53.72;;;20.10;64.60;;;;;;4962278;28;89992;-75
2023/06/26 05:38:35;;;;;;;88.13;54.42;;;20.10;63.80;;;;;;4961322;28;91302;-74
2023/06/26 05:41:01;;;;;;;89.57;54.63;;;20.10;64.70;;;;;;4973002;28;90023;-73
2023/06/26 05:43:27;;;;;;;86.95;53.83;;;20.20;73.10;;;;;;4953880;28;89345;-72
2023/06/26 05:45:52;;;;;;;91.43;54.88;;;20.40;70.80;;;;;;4971465;28;90079;-73
2023/06/26 05:48:18;;;;;;;94.82;56.72;;;20.50;72.60;;;;;;4969172;28;91470;-72
2023/06/26 05:50:45;;;;;;;93.38;54.85;;;20.50;72.20;;;;;;4976377;28;89707;-73
2023/06/26 05:53:10;;;;;;;89.53;55.25;;;20.60;72.90;;;;;;4974930;28;92811;-74
2023/06/26 05:55:36;;;;;;;87.28;54.78;;;20.70;73.40;;;;;;4971912;28;89851;-71
2023/06/26 05:58:03;;;;;;;95.00;54.80;;;20.70;62.90;;;;;;4963081;28;93648;-73
2023/06/26 06:00:29;;;;;;;87.88;54.38;;;20.70;64.00;;;;;;4994306;28;92019;-72
2023/06/26 06:02:55;;;;;;;88.32;53.90;;;20.60;61.80;;;;;;4984428;28;91148;-73
2023/06/26 06:05:21;;;;;;;84.75;53.78;;;20.70;60.90;;;;;;4998783;28;89041;-73
2023/06/26 06:07:47;;;;;;;87.38;53.88;;;20.60;60.70;;;;;;5007512;22;90517;-43
2023/06/26 06:10:13;;;;;;;86.80;53.97;;;20.50;60.00;;;;;;4992934;28;89576;-43
2023/06/26 06:12:38;;;;;;;86.88;54.03;;;20.40;62.00;;;;;;4985299;28;90889;-43
2023/06/26 06:15:05;;;;;;;87.13;53.92;;;20.50;61.80;;;;;;4998659;28;90116;-44
2023/06/26 06:17:31;;;;;;;85.47;53.90;;;20.40;61.00;;;;;;4996347;28;89510;-43
2023/06/26 06:19:56;;;;;;;86.57;53.85;;;20.30;61.00;;;;;;4999324;28;89563;-43
2023/06/26 06:22:22;;;;;;;84.93;53.47;;;20.20;62.20;;;;;;4997759;28;91153;-43
2023/06/26 06:24:49;;;;;;;86.20;53.90;;;20.30;62.90;;;;;;4991708;28;90280;-45
2023/06/26 06:27:15;;;;;;;85.03;53.35;;;20.50;62.60;;;;;;4992095;28;92030;-43
2023/06/26 06:29:41;;;;;;;89.25;54.00;;;20.50;61.70;;;;;;4996614;28;95877;-46
2023/06/26 06:32:07;;;;;;;84.40;53.72;;;20.40;61.50;;;;;;4989960;28;89953;-43
2023/06/26 06:34:32;;;;;;;84.97;53.80;;;20.40;61.30;;;;;;5000786;28;89266;-44
2023/06/26 06:36:58;;;;;;;87.43;53.92;;;20.50;61.90;;;;;;4992982;28;89753;-45
2023/06/26 06:39:23;;;;;;;86.45;53.80;;;20.50;62.10;;;;;;4992381;28;89091;-43
2023/06/26 06:41:49;;;;;;;83.35;53.17;;;20.50;62.10;;;;;;4997201;28;90616;-43
2023/06/26 06:44:15;;;;;;;85.90;54.03;;;20.50;62.20;;;;;;4995098;28;90513;-43
2023/06/26 06:46:40;;;;;;;85.55;53.25;;;20.50;61.80;;;;;;4999600;28;91158;-44
2023/06/26 06:49:06;;;;;;;84.65;53.38;;;20.70;62.00;;;;;;4993754;28;90779;-43
2023/06/26 06:51:31;;;;;;;85.22;53.65;;;20.70;60.90;;;;;;4996135;28;89948;-43
2023/06/26 06:56:41;;;;;;;87.57;53.80;;;20.60;62.20;;;;;;4994330;28;89704;-43
2023/06/26 06:59:07;;;;;;;88.30;54.22;;;20.70;62.90;;;;;;4990422;28;90913;-43
2023/06/26 07:01:33;;;;;;;84.70;53.55;;;20.70;62.40;;;;;;5000101;28;90817;-45
2023/06/26 07:03:59;;;;;;;86.60;53.47;;;20.70;61.90;;;;;;4996697;28;93471;-43
2023/06/26 07:06:24;;;;;;;86.90;53.25;;;20.60;62.00;;;;;;4988326;28;91040;-43
2023/06/26 07:08:51;;;;;;;84.95;53.35;;;20.70;63.20;;;;;;4991905;28;89577;-43
2023/06/26 07:11:16;;;;;;;86.90;53.60;;;20.70;62.80;;;;;;4977881;28;90603;-43
2023/06/26 07:13:42;;;;;;;89.63;53.45;;;20.60;63.30;;;;;;5000098;28;90275;-43
2023/06/26 07:16:11;;;;;;;83.68;53.40;;;20.60;62.30;;;;;;4997897;28;90963;-43
2023/06/26 07:18:38;;;;;;;84.65;53.50;;;20.70;62.50;;;;;;4996211;28;90076;-43
2023/06/26 07:21:04;;;;;;;86.00;53.40;;;20.70;61.90;;;;;;5000901;28;90560;-43
2023/06/26 07:23:30;;;;;;;83.88;53.50;;;20.70;61.70;;;;;;4996597;28;89246;-43
2023/06/26 07:25:55;;;;;;;88.63;53.83;;;20.80;62.70;;;;;;4993790;28;91600;-43
2023/06/26 07:28:21;;;;;;;84.57;54.03;;;20.70;63.30;;;;;;4999745;28;89748;-43
2023/06/26 07:30:46;;;;;;;87.85;53.75;;;20.70;62.20;;;;;;4998018;28;89669;-43
2023/06/26 07:33:12;;;;;;;86.97;53.92;;;20.70;62.10;;;;;;4989452;28;91219;-43
2023/06/26 07:35:38;;;;;;;84.22;53.83;;;20.80;62.00;;;;;;4998808;28;92059;-45
2023/06/26 07:38:03;;;;;;;86.55;54.03;;;20.80;62.20;;;;;;5000748;28;94277;-44
2023/06/26 07:40:29;;;;;;;86.65;54.13;;;20.70;62.50;;;;;;4990761;28;89998;-43
2023/06/26 07:42:55;;;;;;;86.53;53.85;;;20.90;62.80;;;;;;4995979;28;89477;-43
2023/06/26 07:45:20;;;;;;;86.43;53.88;;;20.90;62.80;;;;;;5002091;28;90246;-43
2023/06/26 07:47:46;;;;;;;85.50;53.83;;;20.80;62.70;;;;;;4995083;28;89805;-45
2023/06/26 07:50:12;;;;;;;83.88;53.72;;;20.80;61.80;;;;;;4990763;28;89716;-43
2023/06/26 07:52:37;;;;;;;84.38;53.45;;;20.60;62.70;;;;;;4992700;28;89654;-43
2023/06/26 07:55:03;;;;;;;84.00;53.42;;;20.60;63.50;;;;;;4988454;28;90222;-43
2023/06/26 07:57:29;;;;;;;87.90;53.75;;;20.70;62.80;;;;;;4990512;28;90742;-43
2023/06/26 07:59:55;;;;;;;84.78;53.53;;;20.80;63.00;;;;;;4992712;28;91311;-43
2023/06/26 08:02:21;;;;;;;86.53;53.72;;;21.00;62.30;;;;;;4996379;28;90064;-43
2023/06/26 08:04:47;;;;;;;84.60;53.70;;;21.00;63.40;;;;;;5001851;28;89923;-43
2023/06/26 08:07:13;;;;;;;85.20;53.88;;;21.00;62.60;;;;;;4994292;28;89878;-43
2023/06/26 08:09:39;;;;;;;85.22;53.95;;;21.10;61.80;;;;;;5002793;28;89872;-44
2023/06/26 08:12:05;;;;;;;87.47;53.70;;;21.10;62.20;;;;;;4995725;28;91722;-44
2023/06/26 08:14:31;;;;;;;88.00;53.60;;;21.20;62.00;;;;;;4993703;28;89579;-43
2023/06/26 08:16:59;;;;;;;86.38;53.75;;;21.30;60.70;;;;;;5001427;28;89098;-44
2023/06/26 08:19:25;;;;;;;85.35;54.05;;;21.30;61.50;;;;;;5003200;28;90044;-43
2023/06/26 08:21:51;;;;;;;86.40;53.85;;;21.20;60.40;;;;;;4998592;28;89923;-44
2023/06/26 08:24:18;;;;;;;88.40;54.20;;;21.20;61.50;;;;;;4994064;28;91184;-44
2023/06/26 08:29:48;;;;;;;86.22;53.95;;;21.40;60.50;;;;;;4991359;28;91142;-44
2023/06/26 08:32:13;;;;;;;87.13;53.75;;;21.40;60.40;;;;;;4997323;28;90693;-45
2023/06/26 08:34:39;;;;;;;86.93;54.03;;;21.30;59.00;;;;;;4992507;28;89981;-44
2023/06/26 08:37:05;;;;;;;85.22;53.85;;;21.30;58.20;;;;;;4992554;28;89263;-43
2023/06/26 08:39:31;;;;;;;87.93;54.25;;;21.30;58.50;;;;;;5000609;28;89501;-44
2023/06/26 08:41:56;;;;;;;88.47;53.60;;;21.40;58.50;;;;;;4995697;28;89860;-44
2023/06/26 08:44:24;;;;;;;85.43;53.83;;;21.30;56.70;;;;;;4998273;28;90038;-44
2023/06/26 08:46:51;;;;;;;84.93;53.78;;;21.30;57.10;;;;;;4981809;28;94102;-44
2023/06/26 08:49:36;;;;;;;87.03;53.78;;;21.30;57.40;;;;;;4997381;28;91277;-43
2023/06/26 08:52:17;;;;;;;89.00;54.05;;;21.40;58.90;;;;;;4990082;28;90150;-44
2023/06/26 08:54:47;;;;;;;86.80;54.05;;;21.50;57.90;;;;;;4995011;28;92802;-43
2023/06/26 08:57:17;;;;;;;85.85;53.85;;;21.60;58.90;;;;;;4993206;28;89964;-44
2023/06/26 08:59:42;;;;;;;87.10;54.10;;;21.70;58.10;;;;;;5000183;28;89758;-44
2023/06/26 09:02:08;;;;;;;92.10;54.38;;;21.70;57.60;;;;;;5007597;28;90799;-45
2023/06/26 09:04:34;;;;;;;87.30;54.10;;;21.80;56.70;;;;;;4999410;28;90517;-43
2023/06/26 09:07:00;;;;;;;85.97;54.17;;;21.80;56.70;;;;;;4992338;28;89137;-44
2023/06/26 09:09:26;;;;;;;85.80;54.05;;;21.90;56.80;;;;;;4999273;28;89443;-43
2023/06/26 09:11:51;;;;;;;87.28;54.05;;;21.90;55.50;;;;;;5002191;28;91430;-44
2023/06/26 09:14:17;;;;;;;86.60;54.00;;;21.90;55.40;;;;;;4991858;28;91088;-45
2023/06/26 09:16:42;;;;;;;87.00;54.35;;;22.00;57.20;;;;;;4993080;28;89738;-44
2023/06/26 09:19:12;;;;;;;87.63;54.38;;;22.00;57.40;;;;;;5002050;28;90193;-43
2023/06/26 09:21:40;;;;;;;86.20;54.45;;;22.10;56.40;;;;;;4996084;28;89645;-43
2023/06/26 09:24:08;;;;;;;86.18;54.55;;;22.10;58.50;;;;;;4996046;28;90293;-43
2023/06/26 09:26:38;;;;;;;87.28;54.40;;;22.10;56.50;;;;;;4997034;28;89514;-45
2023/06/26 09:29:05;;;;;;;86.93;54.50;;;22.20;56.20;;;;;;4998022;28;89886;-43
2023/06/26 09:31:32;;;;;;;87.00;54.40;;;22.30;55.50;;;;;;4996345;28;91761;-44
2023/06/26 09:34:00;;;;;;;87.05;54.28;;;22.10;54.40;;;;;;4997727;28;92495;-43
2023/06/26 09:36:29;;;;;;;86.13;54.35;;;22.00;53.90;;;;;;4997701;28;89849;-43
2023/06/26 09:38:55;;;;;;;88.22;54.40;;;22.10;55.20;;;;;;4999113;28;91294;-43
2023/06/26 09:41:20;;;;;;;88.70;54.70;;;22.10;53.60;;;;;;5003795;28;89901;-44
2023/06/26 09:43:47;;;;;;;87.55;54.75;;;22.20;54.80;;;;;;4992470;28;90368;-43
2023/06/26 09:46:29;;;;;;;87.13;54.67;;;22.30;56.20;;;;;;4991969;28;91969;-43
2023/06/26 09:49:11;;;;;;;87.10;54.47;;;22.30;54.90;;;;;;4993939;28;90101;-44
2023/06/26 09:51:40;;;;;;;86.18;54.65;;;22.30;53.20;;;;;;4990254;28;89483;-43
2023/06/26 09:54:06;;;;;;;86.85;54.25;;;22.30;51.80;;;;;;4995405;28;93298;-43
2023/06/26 09:56:32;;;;;;;85.80;54.25;;;22.30;52.90;;;;;;4998973;28;90418;-44
2023/06/26 09:59:03;;;;;;;89.15;54.53;;;22.30;53.00;;;;;;4998487;28;90630;-45
2023/06/26 10:01:30;;;;;;;86.85;54.53;;;22.50;53.40;;;;;;5001058;28;90378;-45
2023/06/26 10:03:57;;;;;;;88.75;55.17;;;22.50;54.70;;;;;;4988008;28;91545;-43
2023/06/26 10:06:27;;;;;;;87.75;54.55;;;22.50;52.80;;;;;;4996639;28;90007;-45
2023/06/26 10:08:53;;;;;;;90.82;54.67;;;22.50;53.10;;;;;;4997043;28;89786;-44
2023/06/26 10:11:22;;;;;;;87.57;54.65;;;22.60;52.20;;;;;;5001149;28;90356;-43
2023/06/26 10:13:51;;;;;;;88.00;55.15;;;22.70;52.10;;;;;;4988929;28;91235;-43
2023/06/26 10:16:31;;;;;;;91.93;55.25;;;22.70;52.40;;;;;;4992428;28;89653;-44
2023/06/26 10:19:03;;;;;;;89.43;54.83;;;22.80;51.20;;;;;;4977127;28;91994;-43
2023/06/26 10:21:31;;;;;;;87.90;54.97;;;22.90;51.60;;;;;;4995498;28;89062;-44
2023/06/26 10:23:57;;;;;;;90.50;54.90;;;22.80;50.20;;;;;;4995800;28;92019;-45
2023/06/26 10:26:26;;;;;;;87.40;55.00;;;22.80;51.10;;;;;;4997820;28;89845;-44
2023/06/26 10:28:54;;;;;;;89.20;55.10;;;22.90;50.90;;;;;;4997795;28;91143;-43
2023/06/26 10:31:25;;;;;;;87.40;54.70;;;22.90;51.60;;;;;;4994860;28;91616;-44
2023/06/26 10:33:52;;;;;;;88.43;54.70;;;22.90;51.10;;;;;;4990994;28;91275;-43
2023/06/26 10:36:19;;;;;;;87.68;54.72;;;22.80;49.70;;;;;;4991075;28;89527;-45
2023/06/26 10:38:55;;;;;;;88.28;54.85;;;22.80;50.10;;;;;;4996398;28;89616;-43
2023/06/26 10:41:25;;;;;;;87.80;54.60;;;22.70;47.10;;;;;;5004809;28;90107;-43
2023/06/26 10:44:11;;;;;;;86.18;55.08;;;22.70;48.60;;;;;;4978619;28;90917;-44
2023/06/26 10:46:52;;;;;;;87.95;54.60;;;22.80;49.80;;;;;;4994641;28;91367;-45
2023/06/26 10:49:20;;;;;;;87.20;54.60;;;22.90;49.00;;;;;;4991274;28;94123;-44
2023/06/26 10:51:50;;;;;;;86.50;54.45;;;22.90;49.50;;;;;;4993189;28;89423;-45
2023/06/26 10:54:17;;;;;;;89.17;54.80;;;22.90;48.20;;;;;;4993777;28;91571;-43
2023/06/26 10:56:47;;;;;;;87.50;54.45;;;22.70;47.90;;;;;;4998357;28;90114;-45
2023/06/26 10:59:17;;;;;;;87.60;54.80;;;22.80;50.90;;;;;;4994534;28;89933;-44
2023/06/26 11:01:44;;;;;;;88.15;54.72;;;22.90;51.10;;;;;;4996325;28;89728;-43
2023/06/26 11:04:14;;;;;;;88.95;55.05;;;23.00;49.50;;;;;;4995178;28;89979;-44
2023/06/26 11:06:40;;;;;;;91.13;55.13;;;23.20;49.30;;;;;;4993839;28;89973;-43
2023/06/26 11:09:11;;;;;;;89.10;54.83;;;23.20;48.40;;;;;;4988033;28;92550;-45
2023/06/26 11:11:52;;;;;;;86.80;54.45;;;23.20;46.60;;;;;;4994196;28;89510;-45
2023/06/26 11:14:22;;;;;;;86.55;54.47;;;23.10;48.10;;;;;;4990891;28;92253;-43
2023/06/26 11:16:49;;;;;;;88.57;54.87;;;23.10;45.70;;;;;;4997161;28;93877;-44
2023/06/26 11:19:16;;;;;;;86.85;54.58;;;23.10;47.00;;;;;;4987958;28;90913;-44
2023/06/26 11:21:42;;;;;;;89.13;54.80;;;23.20;44.70;;;;;;4988206;28;91105;-44
2023/06/26 11:24:08;;;;;;;89.70;55.15;;;23.20;45.00;;;;;;4988944;28;90119;-43
2023/06/26 11:26:41;;;;;;;87.50;54.78;;;23.20;47.40;;;;;;4989606;28;89627;-43
2023/06/26 11:29:07;;;;;;;88.90;55.03;;;23.20;47.80;;;;;;4991171;28;89505;-43
2023/06/26 11:31:35;;;;;;;88.90;54.90;;;23.30;50.70;;;;;;4990702;28;90949;-43
2023/06/26 11:34:03;;;;;;;88.75;54.95;;;23.50;47.40;;;;;;4991340;28;90465;-44
2023/06/26 11:36:30;;;;;;;88.40;55.25;;;23.50;47.80;;;;;;4993921;28;89086;-43
2023/06/26 11:39:00;;;;;;;86.60;54.95;;;23.40;46.40;;;;;;4995689;28;89509;-43
2023/06/26 11:41:30;;;;;;;86.78;54.70;;;23.40;49.10;;;;;;4997825;28;91804;-45
2023/06/26 11:44:02;;;;;;;88.20;54.70;;;23.40;46.50;;;;;;4993740;28;90450;-45
2023/06/26 11:46:28;;;;;;;87.07;54.95;;;23.30;47.70;;;;;;4985712;28;90166;-45
2023/06/26 11:48:54;;;;;;;88.72;54.88;;;23.40;46.40;;;;;;4990936;28;89979;-46
2023/06/26 11:51:20;;;;;;;87.18;55.15;;;23.50;45.70;;;;;;4988164;28;90887;-45
2023/06/26 11:53:47;;;;;;;87.63;54.72;;;23.60;46.10;;;;;;4990150;28;90897;-45
2023/06/26 11:56:17;;;;;;;88.00;54.92;;;23.70;49.70;;;;;;4992485;28;90124;-43
2023/06/26 11:59:12;;;;;;;89.50;55.22;;;23.70;45.80;;;;;;4995057;28;90093;-43
2023/06/26 12:01:39;;;;;;;89.15;55.15;;;23.80;46.20;;;;;;4972662;28;89714;-43
2023/06/26 12:04:07;;;;;;;89.25;54.67;;;23.80;45.30;;;;;;4984410;28;90272;-45
2023/06/26 12:06:46;;;;;;;87.10;54.83;;;23.80;44.90;;;;;;4987956;28;90871;-46
2023/06/26 12:09:13;;;;;;;90.78;55.13;;;23.80;44.60;;;;;;4989867;28;91460;-44
2023/06/26 12:11:42;;;;;;;89.68;55.30;;;23.90;46.40;;;;;;4986291;28;94742;-44
2023/06/26 12:14:08;;;;;;;87.75;54.97;;;23.80;43.70;;;;;;4991467;28;90251;-43
2023/06/26 12:16:35;;;;;;;88.00;55.00;;;23.80;46.50;;;;;;4992832;28;90987;-43
2023/06/26 12:19:02;;;;;;;87.20;55.08;;;23.70;43.30;;;;;;4988355;28;90367;-43
2023/06/26 12:21:37;;;;;;;86.53;54.65;;;23.70;44.40;;;;;;4988733;28;93617;-43
2023/06/26 12:24:04;;;;;;;87.95;54.85;;;23.70;45.80;;;;;;4989783;28;93019;-43
2023/06/26 12:26:30;;;;;;;86.28;54.88;;;23.70;42.80;;;;;;4988682;28;91416;-44
2023/06/26 12:29:03;;;;;;;89.90;55.17;;;23.80;45.70;;;;;;4991620;28;90187;-44
2023/06/26 12:31:29;;;;;;;88.45;55.22;;;23.90;43.40;;;;;;4989896;28;90450;-43
2023/06/26 12:33:55;;;;;;;86.82;55.17;;;23.80;42.50;;;;;;4981572;28;92125;-43